Time;durP1;ratioP1;P1;durP2;ratioP2;P2;SDS_P1;SDS_P2;PMS_P1;PMS_P2;Temp;Humidity;BMP_temperature;BMP_pressure;BME280_temperature;BME280_humidity;BME280_pressure;Samples;Min_cycle;Max_cycle;Signal;HPM_P1;HPM_P2
2022/01/21 00:00:15;;;;;;;30.98;17.08;;;;;;;-3.57;85.68;97816.50;4719075;30;20189;-71
2022/01/21 00:02:40;;;;;;;24.52;12.02;;;;;;;-3.37;85.97;97824.25;4718283;30;20102;-71
2022/01/21 00:05:06;;;;;;;25.95;13.48;;;;;;;-3.56;85.81;97818.19;4719936;30;20052;-73
2022/01/21 00:07:31;;;;;;;32.08;12.88;;;;;;;-3.63;85.52;97811.56;4718421;30;20044;-71
2022/01/21 00:09:56;;;;;;;24.63;12.32;;;;;;;-3.63;85.79;97814.16;4733156;30;20047;-71
2022/01/21 00:12:21;;;;;;;25.10;14.40;;;;;;;-3.53;85.80;97818.06;4719631;30;20067;-73
2022/01/21 00:14:46;;;;;;;29.27;12.88;;;;;;;-3.42;86.24;97822.78;4719690;30;20051;-72
2022/01/21 00:17:11;;;;;;;16.85;7.95;;;;;;;-3.32;85.88;97817.09;4720407;30;20130;-74
2022/01/21 00:19:39;;;;;;;34.42;17.45;;;;;;;-3.48;85.15;97820.44;4719839;30;20083;-74
2022/01/21 00:30:17;;;;;;;21.85;10.98;;;;;;;-3.38;84.02;97816.50;4723300;30;20052;-71
2022/01/21 00:32:47;;;;;;;30.63;14.57;;;;;;;-3.44;84.48;97817.63;4721010;30;20534;-72
2022/01/21 00:35:12;;;;;;;23.95;12.90;;;;;;;-3.28;84.13;97819.56;4724971;30;20059;-72
2022/01/21 00:37:37;;;;;;;23.20;11.75;;;;;;;-3.39;83.95;97835.69;4725566;30;20060;-70
2022/01/21 00:40:06;;;;;;;16.77;9.40;;;;;;;-3.31;84.65;97813.56;4720437;30;20044;-72
2022/01/21 00:45:02;;;;;;;32.10;18.08;;;;;;;-3.32;84.13;97805.81;4719400;30;20540;-68
2022/01/21 00:47:28;;;;;;;30.20;14.43;;;;;;;-3.35;84.31;97814.63;4719541;30;20052;-69
2022/01/21 00:49:53;;;;;;;30.58;14.65;;;;;;;-3.42;84.23;97815.81;4719131;30;20494;-74
2022/01/21 00:52:20;;;;;;;12.00;7.97;;;;;;;-3.23;83.71;97821.03;4732845;30;20419;-70
2022/01/21 00:54:45;;;;;;;25.40;12.45;;;;;;;-3.20;84.17;97815.69;4718401;30;20397;-73
2022/01/21 00:57:10;;;;;;;19.85;8.88;;;;;;;-3.13;83.26;97830.13;4720501;30;20059;-71
2022/01/21 00:59:35;;;;;;;21.98;10.55;;;;;;;-3.28;83.09;97819.56;4719467;30;20478;-67
2022/01/21 01:02:00;;;;;;;23.33;14.00;;;;;;;-3.36;82.96;97823.34;4719708;30;20780;-74
2022/01/21 01:04:26;;;;;;;20.55;10.70;;;;;;;-3.31;83.72;97828.34;4717845;30;20534;-71
2022/01/21 01:06:51;;;;;;;15.95;8.73;;;;;;;-3.09;83.09;97820.41;4718146;30;20143;-71
2022/01/21 01:09:16;;;;;;;26.17;14.65;;;;;;;-3.43;83.17;97824.53;4719139;30;20139;-71
2022/01/21 01:11:54;;;;;;;25.80;13.70;;;;;;;-3.54;83.36;97820.72;4718668;30;20496;-72
2022/01/21 01:22:26;;;;;;;17.52;10.02;;;;;;;-3.21;83.09;97820.97;4718449;30;20147;-70
2022/01/21 01:27:45;;;;;;;40.20;17.80;;;;;;;-3.54;82.62;97826.78;4733066;30;20091;-69
2022/01/21 01:30:14;;;;;;;25.65;13.70;;;;;;;-3.54;83.32;97818.13;4702975;30;20542;-70
2022/01/21 01:32:41;;;;;;;30.08;16.90;;;;;;;-3.57;83.35;97823.44;4716594;30;20260;-69
2022/01/21 01:35:07;;;;;;;26.92;13.82;;;;;;;-3.44;83.62;97815.03;4718933;30;20071;-69
2022/01/21 01:37:52;;;;;;;32.05;14.77;;;;;;;-3.51;83.10;97812.78;4719223;30;20519;-70
2022/01/21 01:50:59;;;;;;;27.27;14.75;;;;;;;-3.58;82.68;97813.94;4718581;30;20059;-66
2022/01/21 01:53:31;;;;;;;28.75;14.70;;;;;;;-3.60;82.75;97806.19;4718325;30;20051;-66
2022/01/21 01:55:58;;;;;;;23.95;13.32;;;;;;;-3.53;83.16;97802.44;4733353;30;20521;-67
2022/01/21 01:58:23;;;;;;;29.02;16.52;;;;;;;-3.58;83.28;97809.59;4719082;30;20059;-66
2022/01/21 02:00:48;;;;;;;23.42;13.40;;;;;;;-3.50;83.52;97817.09;4720645;30;20891;-66
2022/01/21 02:03:15;;;;;;;27.60;13.45;;;;;;;-3.47;83.79;97799.53;4717578;30;20075;-66
2022/01/21 02:05:41;;;;;;;30.10;15.50;;;;;;;-3.54;83.71;97800.72;4718733;30;20066;-71
2022/01/21 02:08:07;;;;;;;27.05;13.88;;;;;;;-3.45;83.23;97805.53;4719097;30;20066;-72
2022/01/21 02:10:34;;;;;;;27.70;14.65;;;;;;;-3.56;82.88;97805.16;4731337;30;20416;-71
2022/01/21 02:13:18;;;;;;;26.45;14.07;;;;;;;-3.65;83.00;97800.38;4718736;30;20052;-72
2022/01/21 02:15:43;;;;;;;27.50;14.57;;;;;;;-3.66;82.56;97811.69;4719338;30;20390;-71
2022/01/21 02:23:36;;;;;;;20.40;8.93;;;;;;;-3.32;83.17;97806.66;4731524;30;20063;-68
2022/01/21 02:26:02;;;;;;;26.10;15.73;;;;;;;-3.48;83.03;97800.44;4720637;30;20052;-67
2022/01/21 02:28:30;;;;;;;26.30;12.48;;;;;;;-3.56;82.65;97806.91;4708397;30;20056;-67
2022/01/21 02:30:57;;;;;;;24.08;13.25;;;;;;;-3.58;82.58;97804.38;4720874;30;20868;-72
2022/01/21 02:33:23;;;;;;;27.48;14.50;;;;;;;-3.49;82.53;97793.53;4689338;30;20064;-66
2022/01/21 02:35:48;;;;;;;32.47;16.58;;;;;;;-3.65;82.02;97789.94;4734731;30;20530;-64
2022/01/21 02:38:12;;;;;;;23.38;13.13;;;;;;;-3.45;81.90;97791.66;4705295;30;20496;-62
2022/01/21 02:40:37;;;;;;;24.38;12.48;;;;;;;-3.41;82.14;97793.22;4719189;30;20122;-71
2022/01/21 02:43:03;;;;;;;23.35;13.40;;;;;;;-3.41;82.41;97803.63;4704430;30;20484;-69
2022/01/21 02:45:27;;;;;;;23.85;12.30;;;;;;;-3.32;82.58;97785.81;4711117;30;20466;-69
2022/01/21 02:47:52;;;;;;;26.58;12.75;;;;;;;-3.38;83.08;97788.69;4681973;30;20107;-67
2022/01/21 02:50:17;;;;;;;30.88;19.35;;;;;;;-3.60;82.76;97781.91;4709998;30;20048;-69
2022/01/21 02:53:39;;;;;;;25.00;13.15;;;;;;;-3.54;82.03;97779.06;4710179;30;20072;-67
2022/01/21 02:55:30;;;;;;;;;;;;;;;-3.49;82.88;97777.91;4683745;30;20053;-68
2022/01/21 02:57:54;;;;;;;24.67;13.30;;;;;;;-3.45;82.66;97779.47;4681857;30;20621;-68
2022/01/21 03:00:20;;;;;;;24.40;12.10;;;;;;;-3.47;82.84;97772.63;4712932;30;20525;-68
2022/01/21 03:02:47;;;;;;;27.10;15.07;;;;;;;-3.55;82.45;97782.56;4697801;30;20049;-69
2022/01/21 03:05:15;;;;;;;28.73;17.02;;;;;;;-3.66;82.08;97778.69;4698099;30;20059;-69
2022/01/21 03:07:40;;;;;;;27.17;12.68;;;;;;;-3.59;81.90;97766.22;4710776;30;20059;-67
2022/01/21 03:10:05;;;;;;;31.70;16.63;;;;;;;-3.53;82.68;97767.72;4710019;30;20135;-67
2022/01/21 03:12:31;;;;;;;26.90;13.80;;;;;;;-3.57;82.31;97771.38;4680109;30;20047;-68
2022/01/21 03:14:56;;;;;;;21.17;11.63;;;;;;;-3.42;82.81;97773.28;4709611;30;20060;-69
2022/01/21 03:17:20;;;;;;;22.02;11.38;;;;;;;-3.39;82.67;97767.94;4694692;30;20463;-67
2022/01/21 03:19:45;;;;;;;20.40;11.23;;;;;;;-3.07;82.07;97769.06;4695123;30;20194;-64
2022/01/21 03:22:12;;;;;;;25.15;12.80;;;;;;;-3.24;81.78;97754.19;4690866;30;20409;-64
2022/01/21 03:24:37;;;;;;;25.23;13.38;;;;;;;-3.27;81.92;97750.91;4699093;30;20071;-63
2022/01/21 03:27:02;;;;;;;25.70;12.00;;;;;;;-3.39;82.25;97765.34;4698019;30;20056;-65
2022/01/21 03:29:27;;;;;;;31.30;15.68;;;;;;;-3.56;82.08;97755.69;4726732;30;20067;-64
2022/01/21 03:31:51;;;;;;;24.02;12.18;;;;;;;-3.52;82.55;97752.03;4727054;30;20077;-63
2022/01/21 03:34:18;;;;;;;24.65;13.02;;;;;;;-3.43;82.83;97746.41;4712105;30;20053;-64
2022/01/21 03:36:43;;;;;;;38.35;16.73;;;;;;;-3.52;82.52;97746.81;4735592;30;20075;-64
2022/01/21 03:39:09;;;;;;;30.38;14.77;;;;;;;-3.63;81.74;97749.06;4726943;30;20425;-63
2022/01/21 03:41:33;;;;;;;27.23;14.00;;;;;;;-3.67;81.50;97756.16;4682814;30;20420;-63
2022/01/21 03:43:58;;;;;;;27.27;13.98;;;;;;;-3.47;82.30;97757.00;4697018;30;20059;-63
2022/01/21 03:46:25;;;;;;;30.55;15.55;;;;;;;-3.56;81.82;97754.84;4696585;30;20147;-64
2022/01/21 03:48:50;;;;;;;29.67;15.38;;;;;;;-3.44;82.28;97757.72;4696470;30;20221;-64
2022/01/21 03:51:18;;;;;;;28.40;14.55;;;;;;;-3.50;82.55;97752.78;4696612;30;20060;-65
2022/01/21 03:53:44;;;;;;;34.78;16.58;;;;;;;-3.70;81.53;97763.25;4717578;30;20505;-64
2022/01/21 03:56:08;;;;;;;23.02;11.07;;;;;;;-3.40;82.21;97748.88;4681959;30;20480;-63
2022/01/21 03:58:33;;;;;;;26.65;13.98;;;;;;;-3.45;82.57;97750.81;4697419;30;20425;-63
2022/01/21 04:00:59;;;;;;;26.70;14.85;;;;;;;-3.35;82.99;97761.66;4697510;30;20052;-64
2022/01/21 04:03:27;;;;;;;34.20;17.40;;;;;;;-3.50;82.32;97765.81;4684205;30;20068;-62
2022/01/21 04:05:53;;;;;;;37.45;17.17;;;;;;;-3.59;81.31;97766.22;4737065;30;20404;-64
2022/01/21 04:08:19;;;;;;;36.33;17.80;;;;;;;-3.42;82.45;97788.91;4699494;30;20053;-63
2022/01/21 04:10:50;;;;;;;34.55;18.05;;;;;;;-3.27;81.81;97776.97;4696306;30;20052;-64
2022/01/21 04:13:19;;;;;;;39.72;20.15;;;;;;;-3.52;81.75;97770.25;4716139;30;20068;-64
2022/01/21 04:15:53;;;;;;;40.53;17.98;;;;;;;-3.47;81.41;97778.69;4728659;30;20650;-64
2022/01/21 04:18:19;;;;;;;27.30;14.43;;;;;;;-3.46;81.58;97769.97;4681411;30;20428;-65
2022/01/21 04:20:52;;;;;;;32.85;17.48;;;;;;;-3.51;81.28;97765.91;4725450;30;20044;-64
2022/01/21 04:23:20;;;;;;;38.55;21.10;;;;;;;-3.64;81.23;97767.34;4695722;30;20090;-63
2022/01/21 04:25:45;;;;;;;42.40;18.42;;;;;;;-3.58;81.53;97767.91;4680137;30;20044;-64
2022/01/21 04:28:10;;;;;;;40.33;20.25;;;;;;;-3.72;81.03;97786.75;4715955;30;20052;-63
2022/01/21 04:30:36;;;;;;;33.72;15.95;;;;;;;-3.61;80.85;97773.25;4696186;30;20084;-64
2022/01/21 04:33:01;;;;;;;18.80;9.38;;;;;;;-3.42;81.96;97770.69;4707899;30;20065;-65
2022/01/21 04:35:27;;;;;;;30.23;13.68;;;;;;;-3.37;82.08;97772.16;4713357;30;20099;-63
2022/01/21 11:25:56;;;;;;;11.23;6.32;;;;;;;-4.34;79.07;97549.31;4786456;24;20072;-64
2022/01/21 11:28:28;;;;;;;30.88;13.13;;;;;;;-4.41;78.11;97546.16;4756405;29;20053;-63
2022/01/21 11:30:55;;;;;;;34.55;13.43;;;;;;;-4.58;78.25;97544.31;4770974;29;20490;-63
2022/01/21 11:33:24;;;;;;;28.00;13.57;;;;;;;-4.58;78.73;97549.50;4787746;29;20139;-62
2022/01/21 11:35:53;;;;;;;22.65;12.35;;;;;;;-4.61;78.90;97543.59;4787237;29;20061;-65
2022/01/21 11:38:20;;;;;;;19.00;9.35;;;;;;;-4.57;79.11;97546.00;4787578;29;20100;-64
2022/01/21 11:40:49;;;;;;;17.05;9.02;;;;;;;-4.46;79.39;97546.34;4787000;29;20569;-63
2022/01/21 11:43:17;;;;;;;22.27;11.32;;;;;;;-4.39;78.96;97544.31;4755877;29;20140;-64
2022/01/21 11:46:16;;;;;;;24.88;13.85;;;;;;;-4.51;78.67;97545.72;4787369;29;20057;-62
2022/01/21 11:48:51;;;;;;;25.38;11.82;;;;;;;-4.41;78.34;97549.59;4787169;29;20046;-62
2022/01/21 11:51:42;;;;;;;21.15;9.35;;;;;;;-4.46;78.34;97542.91;4774826;29;20076;-63
2022/01/21 11:54:13;;;;;;;19.33;9.88;;;;;;;-4.46;77.55;97553.31;4790303;29;20413;-62
2022/01/21 11:56:49;;;;;;;26.02;13.20;;;;;;;-4.68;78.27;97550.81;4774366;29;20516;-62
2022/01/21 12:01:53;;;;;;;24.45;12.73;;;;;;;-4.74;78.95;97545.06;4790789;29;20044;-61
2022/01/21 12:04:31;;;;;;;14.95;8.13;;;;;;;-4.59;78.98;97541.78;4774539;29;20050;-62
2022/01/21 12:07:00;;;;;;;18.38;9.90;;;;;;;-4.60;78.95;97537.47;4788885;29;20049;-62
2022/01/21 12:09:54;;;;;;;21.92;12.77;;;;;;;-4.71;79.67;97531.91;4774537;29;20082;-61
2022/01/21 12:12:19;;;;;;;18.67;10.88;;;;;;;-4.68;79.40;97532.63;4774128;29;20061;-66
2022/01/21 12:14:51;;;;;;;12.90;6.68;;;;;;;-4.58;79.17;97538.25;4790786;29;20472;-63
2022/01/21 12:17:50;;;;;;;28.42;12.50;;;;;;;-4.64;78.17;97528.16;4759701;29;20054;-64
2022/01/21 12:20:15;;;;;;;31.40;13.52;;;;;;;-4.81;78.17;97534.06;4790538;29;20489;-61
2022/01/21 12:22:40;;;;;;;27.13;11.15;;;;;;;-4.89;78.61;97521.44;4790329;29;20480;-66
2022/01/21 12:25:07;;;;;;;15.38;8.70;;;;;;;-4.77;78.91;97526.09;4759243;29;20129;-66
2022/01/21 12:27:36;;;;;;;37.78;14.40;;;;;;;-4.85;78.46;97525.56;4754899;29;20043;-74
2022/01/21 12:30:20;;;;;;;23.67;11.82;;;;;;;-4.94;78.91;97517.31;4754744;30;20051;-67
2022/01/21 12:32:56;;;;;;;19.13;9.85;;;;;;;-4.96;78.87;97513.94;4753524;30;20418;-67
2022/01/21 12:35:41;;;;;;;21.23;11.52;;;;;;;-4.92;79.58;97508.56;4754514;29;20116;-66
2022/01/21 12:40:52;;;;;;;20.23;11.30;;;;;;;-4.97;79.05;97512.28;4754229;30;20410;-67
2022/01/21 12:43:46;;;;;;;21.85;11.70;;;;;;;-4.99;79.18;97512.34;4754087;30;20078;-66
2022/01/21 12:46:18;;;;;;;24.48;12.68;;;;;;;-4.92;79.45;97524.16;4754337;30;20059;-67
2022/01/21 12:48:48;;;;;;;27.45;12.32;;;;;;;-4.86;79.96;97526.50;4754540;30;20057;-68
2022/01/21 12:52:25;;;;;;;21.80;12.38;;;;;;;-4.93;80.07;97524.22;4717009;30;20051;-67
2022/01/21 12:57:35;;;;;;;26.20;13.30;;;;;;;-4.87;80.38;97511.81;4701931;30;20208;-67
2022/01/21 13:00:09;;;;;;;22.67;10.35;;;;;;;-4.61;80.81;97515.84;4716667;30;20060;-67
2022/01/21 13:02:36;;;;;;;25.92;11.48;;;;;;;-4.70;80.14;97512.81;4716655;30;20060;-67
2022/01/21 13:05:32;;;;;;;18.15;9.43;;;;;;;-4.70;80.15;97518.00;4686155;30;20473;-67
2022/01/21 13:08:15;;;;;;;22.00;12.30;;;;;;;-4.81;80.37;97514.13;4701512;30;20506;-66
2022/01/21 13:10:41;;;;;;;24.13;14.30;;;;;;;-4.95;80.77;97519.09;4716190;30;20067;-69
2022/01/21 13:15:57;;;;;;;27.92;14.05;;;;;;;-4.74;80.26;97516.47;4716335;30;20555;-66
2022/01/21 13:18:25;;;;;;;31.55;13.50;;;;;;;-4.84;80.00;97516.00;4701834;30;20048;-67
2022/01/21 13:20:58;;;;;;;30.63;14.32;;;;;;;-4.84;80.09;97508.22;4687185;30;20093;-67
2022/01/21 13:23:42;;;;;;;26.73;14.43;;;;;;;-4.77;79.84;97518.28;4747338;30;20166;-66
2022/01/21 13:26:26;;;;;;;30.20;14.40;;;;;;;-4.85;80.27;97514.31;4773125;29;20055;-67
2022/01/21 13:29:19;;;;;;;22.42;9.95;;;;;;;-4.76;79.87;97514.78;4789278;29;20057;-68
2022/01/21 13:31:47;;;;;;;30.40;15.93;;;;;;;-4.88;79.44;97523.13;4789153;29;20053;-66
2022/01/21 13:34:17;;;;;;;26.23;13.52;;;;;;;-4.92;79.54;97516.34;4789316;29;20102;-68
2022/01/21 13:36:41;;;;;;;33.00;13.85;;;;;;;-4.97;79.57;97514.88;4789330;29;20413;-68
2022/01/21 13:39:12;;;;;;;14.23;7.20;;;;;;;-4.87;79.96;97526.56;4789017;29;20073;-67
2022/01/21 13:42:07;;;;;;;26.63;13.63;;;;;;;-4.94;79.85;97509.53;4789443;29;20386;-67
2022/01/21 13:44:42;;;;;;;15.77;9.27;;;;;;;-4.81;80.13;97521.09;4772771;29;20051;-66
2022/01/21 13:47:28;;;;;;;41.80;17.45;;;;;;;-4.94;80.41;97514.72;4772377;29;20106;-66
2022/01/21 13:50:19;;;;;;;19.63;8.57;;;;;;;-4.96;80.46;97506.16;4789098;29;20129;-67
2022/01/21 13:52:53;;;;;;;29.30;11.90;;;;;;;-4.99;80.43;97507.16;4772193;29;20122;-64
2022/01/21 13:55:45;;;;;;;23.73;11.83;;;;;;;-4.87;80.19;97500.56;4772826;29;20048;-69
2022/01/21 13:58:15;;;;;;;22.60;12.27;;;;;;;-4.85;78.68;97499.56;4789296;29;20126;-66
2022/01/21 14:00:52;;;;;;;15.70;8.98;;;;;;;-4.80;77.71;97489.00;4757782;29;20042;-65
2022/01/21 14:03:22;;;;;;;27.10;12.77;;;;;;;-5.01;76.83;97488.19;4773235;29;20054;-65
2022/01/21 14:06:02;;;;;;;27.55;14.90;;;;;;;-5.14;76.95;97492.22;4757640;29;20053;-67
2022/01/21 14:08:28;;;;;;;37.42;15.45;;;;;;;-5.25;76.84;97486.66;4758081;29;20878;-68
2022/01/21 14:11:05;;;;;;;23.85;11.18;;;;;;;-5.30;77.14;97491.19;4773200;29;20115;-67
2022/01/21 14:14:02;;;;;;;28.80;13.73;;;;;;;-5.39;77.68;97502.81;4772714;29;20127;-66
2022/01/21 14:16:39;;;;;;;24.83;12.45;;;;;;;-5.52;77.84;97499.03;4771351;29;20046;-67
2022/01/21 14:19:09;;;;;;;28.55;15.65;;;;;;;-5.53;78.17;97495.59;4772688;29;20057;-67
2022/01/21 14:21:37;;;;;;;17.30;8.68;;;;;;;-5.56;78.56;97507.88;4772612;29;20077;-67
2022/01/21 14:24:14;;;;;;;24.02;12.63;;;;;;;-5.41;78.51;97502.03;4788272;29;20115;-66
2022/01/21 14:26:50;;;;;;;26.88;11.85;;;;;;;-5.45;78.38;97502.22;4771278;29;20124;-66
2022/01/21 14:29:15;;;;;;;24.90;13.20;;;;;;;-5.54;78.14;97501.72;4787272;29;20038;-67
2022/01/21 14:31:47;;;;;;;23.65;11.85;;;;;;;-5.55;78.48;97515.59;4771219;29;20164;-66
2022/01/21 14:34:12;;;;;;;22.13;9.93;;;;;;;-5.37;77.92;97508.78;4770919;29;20042;-74
2022/01/21 14:36:37;;;;;;;24.08;10.50;;;;;;;-5.40;77.60;97502.88;4773772;29;20065;-77
2022/01/21 14:39:13;;;;;;;16.92;8.48;;;;;;;-5.50;77.69;97499.81;4756142;29;20042;-72
2022/01/21 14:41:51;;;;;;;26.80;11.82;;;;;;;-5.61;78.26;97499.41;4769058;29;20042;-71
2022/01/21 14:44:18;;;;;;;8.02;5.88;;;;;;;-5.52;78.53;97506.81;4786962;29;20053;-76
2022/01/21 14:46:43;;;;;;;13.75;7.45;;;;;;;-5.55;77.96;97497.44;4756816;29;20050;-75
2022/01/21 14:49:10;;;;;;;31.48;14.05;;;;;;;-5.59;78.01;97501.06;4771121;29;20050;-73
2022/01/21 14:51:47;;;;;;;25.88;12.90;;;;;;;-5.57;78.18;97504.44;4758263;29;20498;-77
2022/01/21 14:54:21;;;;;;;20.38;9.90;;;;;;;-5.56;78.07;97492.31;4772014;29;20042;-74
2022/01/21 14:57:00;;;;;;;21.33;10.32;;;;;;;-5.58;78.13;97504.50;4789336;29;20061;-74
2022/01/21 14:59:27;;;;;;;29.65;13.15;;;;;;;-5.57;77.95;97506.19;4773100;29;20107;-77
2022/01/21 15:01:58;;;;;;;28.73;8.88;;;;;;;-5.43;77.47;97498.66;4789891;29;20486;-76
2022/01/21 15:04:24;;;;;;;29.00;13.15;;;;;;;-5.62;77.75;97506.34;4789162;29;20061;-75
2022/01/21 15:07:05;;;;;;;10.93;7.15;;;;;;;-5.56;77.94;97497.50;4772556;29;20061;-76
2022/01/21 15:09:31;;;;;;;18.73;8.70;;;;;;;-5.64;78.19;97502.97;4790191;29;20050;-76
2022/01/21 15:14:45;;;;;;;15.82;9.40;;;;;;;-5.42;77.06;97495.16;4700504;30;20067;-69
2022/01/21 15:17:15;;;;;;;16.02;9.07;;;;;;;-5.56;77.08;97494.91;4715774;30;20056;-67
2022/01/21 15:19:46;;;;;;;25.52;13.05;;;;;;;-5.57;77.47;97504.44;4699895;30;20121;-67
2022/01/21 15:22:15;;;;;;;23.42;11.75;;;;;;;-5.62;77.61;97490.78;4714654;30;20063;-70
2022/01/21 15:24:42;;;;;;;17.50;8.73;;;;;;;-5.67;77.84;97505.72;4714188;30;20450;-71
2022/01/21 15:27:15;;;;;;;14.55;8.38;;;;;;;-5.64;78.46;97497.78;4685104;30;20106;-69
2022/01/21 15:29:45;;;;;;;19.90;9.93;;;;;;;-5.74;78.28;97496.47;4714416;30;20071;-70
2022/01/21 15:32:15;;;;;;;18.70;10.50;;;;;;;-5.71;78.75;97498.09;4700169;30;20064;-75
2022/01/21 15:34:42;;;;;;;18.95;10.77;;;;;;;-5.75;78.58;97496.53;4715950;30;20104;-76
2022/01/21 15:37:15;;;;;;;19.27;7.93;;;;;;;-5.58;79.27;97491.50;4716987;30;20059;-74
2022/01/21 15:39:40;;;;;;;27.00;14.30;;;;;;;-5.62;79.02;97511.53;4702509;30;20173;-75
2022/01/21 15:42:05;;;;;;;21.80;10.50;;;;;;;-5.56;79.01;97498.34;4700333;30;20114;-71
2022/01/21 15:44:33;;;;;;;16.00;8.23;;;;;;;-5.49;78.67;97502.34;4714651;30;20597;-72
2022/01/21 15:47:00;;;;;;;20.75;9.27;;;;;;;-5.64;78.58;97504.72;4700417;30;20643;-78
2022/01/21 15:49:27;;;;;;;24.15;11.25;;;;;;;-5.57;78.90;97504.44;4715749;30;20508;-77
2022/01/21 15:51:53;;;;;;;20.73;11.02;;;;;;;-5.63;78.86;97498.63;4756347;29;20133;-77
2022/01/21 15:54:19;;;;;;;23.08;9.75;;;;;;;-5.64;79.56;97500.38;4788830;29;20106;-76
2022/01/21 15:56:44;;;;;;;17.17;7.93;;;;;;;-5.45;79.03;97500.47;4772018;29;20057;-71
2022/01/21 15:59:10;;;;;;;22.08;8.98;;;;;;;-5.44;78.42;97494.38;4771435;29;20137;-71
2022/01/21 16:01:36;;;;;;;18.92;10.00;;;;;;;-5.46;78.34;97500.53;4787570;29;20103;-71
2022/01/21 16:04:02;;;;;;;20.25;8.70;;;;;;;-5.49;78.28;97504.09;4771168;29;20075;-73
2022/01/21 16:06:28;;;;;;;25.50;11.52;;;;;;;-5.58;78.36;97496.69;4771068;29;20850;-72
2022/01/21 16:08:53;;;;;;;15.07;7.63;;;;;;;-5.50;78.04;97497.22;4787513;29;20042;-71
2022/01/21 16:11:18;;;;;;;17.13;8.55;;;;;;;-5.49;78.43;97499.75;4787338;29;20057;-72
2022/01/21 16:13:43;;;;;;;20.42;8.52;;;;;;;-5.58;78.27;97509.69;4772837;29;20073;-74
2022/01/21 16:16:08;;;;;;;22.52;11.18;;;;;;;-5.55;78.35;97496.59;4788181;29;20065;-74
2022/01/21 16:18:35;;;;;;;20.13;10.25;;;;;;;-5.65;78.81;97496.13;4772080;29;20050;-74
2022/01/21 16:21:05;;;;;;;16.63;9.27;;;;;;;-5.55;78.29;97492.25;4787677;29;20095;-72
2022/01/21 16:23:32;;;;;;;18.60;9.80;;;;;;;-5.50;78.19;97484.25;4788155;29;20062;-76
2022/01/21 16:25:57;;;;;;;18.70;11.15;;;;;;;-5.61;78.16;97489.88;4787507;29;20506;-73
2022/01/21 16:28:27;;;;;;;21.85;9.55;;;;;;;-5.60;78.82;97498.50;4772067;29;20453;-73
2022/01/21 16:30:54;;;;;;;23.60;10.93;;;;;;;-5.63;78.46;97489.09;4771479;29;20110;-74
2022/01/21 16:33:24;;;;;;;23.92;10.95;;;;;;;-5.69;78.63;97493.72;4788169;29;20096;-75
2022/01/21 16:35:53;;;;;;;18.00;8.88;;;;;;;-5.56;78.36;97494.91;4788574;29;20050;-79
2022/01/21 16:38:20;;;;;;;19.23;9.02;;;;;;;-5.64;78.11;97495.19;4771504;29;20042;-74
2022/01/21 16:40:50;;;;;;;21.55;11.98;;;;;;;-5.78;78.56;97499.28;4791642;29;20058;-76
2022/01/21 16:43:17;;;;;;;20.15;10.88;;;;;;;-5.86;78.84;97497.81;4790953;29;20046;-73
2022/01/21 16:45:43;;;;;;;21.25;11.00;;;;;;;-5.64;79.35;97494.34;4790090;29;20050;-73
2022/01/21 16:48:10;;;;;;;19.75;10.15;;;;;;;-5.61;79.58;97502.00;4774405;29;20231;-74
2022/01/21 16:50:36;;;;;;;21.63;10.85;;;;;;;-5.70;79.38;97499.81;4790689;29;20081;-76
2022/01/21 16:53:07;;;;;;;21.77;11.00;;;;;;;-5.75;79.86;97491.34;4790834;29;20968;-75
2022/01/21 16:55:33;;;;;;;18.90;9.77;;;;;;;-5.74;79.52;97496.47;4790983;29;20370;-73
2022/01/21 16:57:59;;;;;;;21.65;10.30;;;;;;;-5.70;80.04;97487.66;4790906;29;20042;-71
2022/01/21 17:00:26;;;;;;;14.95;6.88;;;;;;;-5.63;80.39;97489.09;4758883;29;20077;-69
2022/01/21 17:02:54;;;;;;;22.35;11.18;;;;;;;-5.70;80.46;97492.00;4774979;29;20496;-76
2022/01/21 17:05:19;;;;;;;16.00;8.88;;;;;;;-5.62;80.48;97484.75;4795584;29;20058;-77
2022/01/21 17:07:50;;;;;;;14.32;6.78;;;;;;;-5.53;80.33;97487.81;4785006;29;20134;-79
2022/01/21 17:10:40;;;;;;;20.73;10.15;;;;;;;-5.45;80.79;97474.53;4756241;29;20051;-71
2022/01/21 17:13:07;;;;;;;18.05;10.52;;;;;;;-5.60;80.64;97480.34;4773375;29;20043;-77
2022/01/21 17:15:32;;;;;;;21.63;11.15;;;;;;;-5.67;80.81;97481.53;4757347;29;20054;-76
2022/01/21 17:17:59;;;;;;;17.95;10.23;;;;;;;-5.69;80.58;97486.78;4790075;29;20061;-77
2022/01/21 17:20:23;;;;;;;21.50;11.13;;;;;;;-5.66;80.99;97478.03;4790765;29;20402;-71
2022/01/21 17:22:49;;;;;;;27.55;12.25;;;;;;;-5.68;80.93;97490.22;4790861;29;20046;-73
2022/01/21 17:25:15;;;;;;;20.30;9.48;;;;;;;-5.62;80.98;97489.94;4789491;29;20202;-73
2022/01/21 17:27:41;;;;;;;18.83;10.35;;;;;;;-5.57;81.07;97494.06;4758095;29;20137;-72
2022/01/21 17:30:07;;;;;;;23.90;10.65;;;;;;;-5.57;80.91;97495.81;4758591;29;20199;-74
2022/01/21 17:32:33;;;;;;;19.42;9.35;;;;;;;-5.58;81.05;97492.34;4790108;29;20508;-71
2022/01/21 17:35:00;;;;;;;20.70;10.52;;;;;;;-5.51;81.41;97498.13;4789025;29;20136;-74
2022/01/21 17:37:29;;;;;;;19.55;10.55;;;;;;;-5.42;81.13;97499.50;4759330;29;20050;-75
2022/01/21 17:39:54;;;;;;;19.10;10.85;;;;;;;-5.46;80.95;97497.94;4790427;29;20054;-76
2022/01/21 17:42:22;;;;;;;20.80;10.68;;;;;;;-5.46;81.16;97505.72;4790176;29;20050;-74
2022/01/21 17:44:47;;;;;;;19.75;10.68;;;;;;;-5.52;80.98;97499.88;4758154;29;20145;-75
2022/01/21 17:47:17;;;;;;;17.00;7.13;;;;;;;-5.42;81.48;97495.16;4758459;29;20575;-73
2022/01/21 17:49:43;;;;;;;21.98;10.68;;;;;;;-5.45;81.80;97492.69;4773128;29;20104;-74
2022/01/21 17:52:09;;;;;;;18.15;9.52;;;;;;;-5.34;81.16;97493.09;4789207;29;20046;-75
2022/01/21 17:54:36;;;;;;;22.92;10.23;;;;;;;-5.31;81.23;97487.78;4772784;29;20405;-67
2022/01/21 17:57:04;;;;;;;20.30;10.25;;;;;;;-5.27;81.32;97493.66;4789029;29;20069;-68
2022/01/21 17:59:29;;;;;;;24.10;11.52;;;;;;;-5.39;81.77;97501.97;4772546;29;20057;-72
2022/01/21 18:01:55;;;;;;;24.15;10.45;;;;;;;-5.44;81.61;97511.72;4787373;29;20042;-68
2022/01/21 18:04:21;;;;;;;19.20;10.85;;;;;;;-5.39;81.50;97505.41;4789066;29;20050;-69
2022/01/21 18:06:46;;;;;;;25.05;10.35;;;;;;;-5.36;81.77;97507.88;4789720;29;20046;-70
2022/01/21 18:09:15;;;;;;;25.75;13.18;;;;;;;-5.37;81.21;97516.56;4789670;29;20060;-69
2022/01/21 18:11:41;;;;;;;22.38;10.88;;;;;;;-5.39;81.67;97515.78;4773370;29;20104;-69
2022/01/21 18:14:10;;;;;;;25.65;10.95;;;;;;;-5.37;81.15;97518.31;4758519;29;20523;-69
2022/01/21 18:16:36;;;;;;;23.02;10.32;;;;;;;-5.32;81.52;97519.84;4789124;29;20132;-69
2022/01/21 18:19:19;;;;;;;24.90;13.50;;;;;;;-5.29;81.75;97530.06;4789145;29;20054;-69
2022/01/21 18:21:47;;;;;;;24.80;12.50;;;;;;;-5.29;81.08;97526.63;4744689;29;20420;-69
2022/01/21 18:24:16;;;;;;;14.50;9.35;;;;;;;-5.24;81.30;97528.13;4792104;29;20054;-71
2022/01/21 18:26:42;;;;;;;21.73;9.93;;;;;;;-5.22;80.88;97528.91;4795337;29;20042;-70
2022/01/21 18:29:10;;;;;;;15.82;8.40;;;;;;;-5.17;81.14;97528.72;4772618;29;20118;-70
2022/01/21 18:31:37;;;;;;;18.65;8.98;;;;;;;-5.20;80.89;97532.31;4788939;29;20129;-70
2022/01/21 18:34:11;;;;;;;17.48;7.45;;;;;;;-5.28;81.31;97531.75;4773203;29;20056;-70
2022/01/21 18:36:38;;;;;;;17.67;9.70;;;;;;;-5.13;81.23;97525.09;4788810;29;20112;-69
2022/01/21 18:39:08;;;;;;;25.45;13.05;;;;;;;-5.22;81.40;97533.28;4788726;29;20506;-69
2022/01/21 18:41:33;;;;;;;20.17;10.63;;;;;;;-5.30;81.30;97536.16;4789129;29;20054;-70
2022/01/21 18:44:00;;;;;;;19.05;10.80;;;;;;;-5.24;81.69;97545.47;4772580;29;20508;-71
2022/01/21 18:46:27;;;;;;;16.50;9.85;;;;;;;-5.26;82.06;97548.13;4757890;29;20058;-70
2022/01/21 18:48:54;;;;;;;22.77;10.80;;;;;;;-5.22;81.99;97539.31;4793174;29;20080;-69
2022/01/21 18:51:20;;;;;;;18.23;10.00;;;;;;;-5.14;82.58;97544.16;4772826;29;20050;-70
2022/01/21 18:53:45;;;;;;;23.90;11.23;;;;;;;-5.03;82.56;97526.38;4787599;29;20046;-67
2022/01/21 18:56:11;;;;;;;20.05;9.18;;;;;;;-5.04;82.57;97534.22;4772001;29;20187;-67
2022/01/21 18:58:39;;;;;;;25.70;12.20;;;;;;;-5.10;82.50;97532.75;4772090;29;20058;-67
2022/01/21 19:01:32;;;;;;;19.58;11.68;;;;;;;-5.13;82.45;97533.72;4775763;29;20509;-68
2022/01/21 19:03:59;;;;;;;20.58;10.90;;;;;;;-5.19;82.83;97540.94;4756891;29;20076;-68
2022/01/21 19:06:27;;;;;;;16.33;10.30;;;;;;;-5.20;82.91;97537.50;4788904;29;20062;-67
2022/01/21 19:08:56;;;;;;;24.25;11.57;;;;;;;-5.19;82.40;97544.34;4788628;29;20046;-68